sensor_id;sensor_type;location;lat;lon;timestamp;pressure;altitude;pressure_sealevel;temperature;humidity
24746;BME280;12845;52.042;6.838;2022-12-29T00:01:13;67888.16;;;10.10;100.00
24746;BME280;12845;52.042;6.838;2022-12-29T00:03:39;67889.28;;;10.11;100.00
24746;BME280;12845;52.042;6.838;2022-12-29T00:11:11;67896.06;;;10.17;100.00
24746;BME280;12845;52.042;6.838;2022-12-29T00:13:37;67895.13;;;10.19;100.00
24746;BME280;12845;52.042;6.838;2022-12-29T00:16:21;67896.06;;;10.17;100.00
24746;BME280;12845;52.042;6.838;2022-12-29T00:18:46;67898.34;;;10.20;100.00
24746;BME280;12845;52.042;6.838;2022-12-29T00:21:17;67896.06;;;10.17;100.00
24746;BME280;12845;52.042;6.838;2022-12-29T00:26:55;67891.94;;;10.11;100.00
24746;BME280;12845;52.042;6.838;2022-12-29T00:29:39;67888.72;;;10.11;100.00
24746;BME280;12845;52.042;6.838;2022-12-29T00:32:23;67888.16;;;10.10;100.00
24746;BME280;12845;52.042;6.838;2022-12-29T00:35:09;67886.06;;;10.11;100.00
24746;BME280;12845;52.042;6.838;2022-12-29T00:37:46;67893.06;;;10.12;100.00
24746;BME280;12845;52.042;6.838;2022-12-29T00:40:31;67897.03;;;10.16;100.00
24746;BME280;12845;52.042;6.838;2022-12-29T00:43:15;67896.06;;;10.17;100.00
24746;BME280;12845;52.042;6.838;2022-12-29T00:45:58;67896.06;;;10.17;100.00
24746;BME280;12845;52.042;6.838;2022-12-29T00:48:24;67900.44;;;10.19;100.00
24746;BME280;12845;52.042;6.838;2022-12-29T00:51:08;67897.78;;;10.19;100.00
24746;BME280;12845;52.042;6.838;2022-12-29T00:53:34;67897.78;;;10.19;100.00
24746;BME280;12845;52.042;6.838;2022-12-29T00:55:59;67898.16;;;10.17;100.00
24746;BME280;12845;52.042;6.838;2022-12-29T00:58:29;67896.47;;;10.15;100.00
24746;BME280;12845;52.042;6.838;2022-12-29T01:01:07;67891.53;;;10.13;100.00
24746;BME280;12845;52.042;6.838;2022-12-29T01:03:33;67889.28;;;10.11;100.00
24746;BME280;12845;52.042;6.838;2022-12-29T01:06:03;67887.41;;;10.07;100.00
24746;BME280;12845;52.042;6.838;2022-12-29T01:08:29;67882.47;;;10.05;100.00
24746;BME280;12845;52.042;6.838;2022-12-29T01:11:05;67880.00;;;10.01;100.00
24746;BME280;12845;52.042;6.838;2022-12-29T01:13:31;67871.13;;;9.95;100.00
24746;BME280;12845;52.042;6.838;2022-12-29T01:15:57;67864.31;;;9.89;100.00
24746;BME280;12845;52.042;6.838;2022-12-29T01:18:23;67865.84;;;9.88;100.00
24746;BME280;12845;52.042;6.838;2022-12-29T01:20:49;67863.00;;;9.85;100.00
24746;BME280;12845;52.042;6.838;2022-12-29T01:23:14;67859.78;;;9.85;100.00
24746;BME280;12845;52.042;6.838;2022-12-29T01:25:40;67856.38;;;9.82;100.00
24746;BME280;12845;52.042;6.838;2022-12-29T01:28:05;67857.91;;;9.81;100.00
24746;BME280;12845;52.042;6.838;2022-12-29T01:30:36;67854.50;;;9.78;100.00
24746;BME280;12845;52.042;6.838;2022-12-29T01:33:02;67848.84;;;9.73;100.00
24746;BME280;12845;52.042;6.838;2022-12-29T01:35:27;67842.75;;;9.69;100.00
24746;BME280;12845;52.042;6.838;2022-12-29T01:37:53;67842.03;;;9.66;100.00
24746;BME280;12845;52.042;6.838;2022-12-29T01:40:18;67835.97;;;9.63;100.00
24746;BME280;12845;52.042;6.838;2022-12-29T01:42:44;67832.00;;;9.60;100.00
24746;BME280;12845;52.042;6.838;2022-12-29T01:45:14;67832.97;;;9.58;100.00
24746;BME280;12845;52.042;6.838;2022-12-29T01:50:28;67821.25;;;9.50;100.00
24746;BME280;12845;52.042;6.838;2022-12-29T01:52:59;67824.47;;;9.51;100.00
24746;BME280;12845;52.042;6.838;2022-12-29T01:57:52;67826.16;;;9.52;100.00
24746;BME280;12845;52.042;6.838;2022-12-29T02:02:47;67831.25;;;9.57;100.00
24746;BME280;12845;52.042;6.838;2022-12-29T02:08:04;67833.72;;;9.61;100.00
24746;BME280;12845;52.042;6.838;2022-12-29T02:10:32;67831.81;;;9.57;100.00
24746;BME280;12845;52.042;6.838;2022-12-29T02:12:59;67835.22;;;9.60;100.00
24746;BME280;12845;52.042;6.838;2022-12-29T02:18:28;67841.06;;;9.68;100.00
24746;BME280;12845;52.042;6.838;2022-12-29T02:21:09;67842.75;;;9.69;100.00
24746;BME280;12845;52.042;6.838;2022-12-29T02:34:50;67849.97;;;9.74;100.00
24746;BME280;12845;52.042;6.838;2022-12-29T02:37:25;67852.81;;;9.76;100.00
24746;BME280;12845;52.042;6.838;2022-12-29T02:45:17;67863.75;;;9.88;100.00
24746;BME280;12845;52.042;6.838;2022-12-29T02:52:48;67868.88;;;9.93;100.00
24746;BME280;12845;52.042;6.838;2022-12-29T02:55:14;67876.06;;;9.97;100.00
24746;BME280;12845;52.042;6.838;2022-12-29T02:57:40;67879.06;;;10.02;100.00
24746;BME280;12845;52.042;6.838;2022-12-29T03:00:09;67880.75;;;10.04;100.00
24746;BME280;12845;52.042;6.838;2022-12-29T03:16:32;67895.34;;;10.14;100.00
24746;BME280;12845;52.042;6.838;2022-12-29T03:19:04;67898.16;;;10.17;100.00
24746;BME280;12845;52.042;6.838;2022-12-29T03:21:39;67899.47;;;10.21;100.00
24746;BME280;12845;52.042;6.838;2022-12-29T03:24:28;67905.53;;;10.24;100.00
24746;BME280;12845;52.042;6.838;2022-12-29T03:26:57;67911.25;;;10.29;100.00
24746;BME280;12845;52.042;6.838;2022-12-29T03:29:24;67915.19;;;10.32;100.00
24746;BME280;12845;52.042;6.838;2022-12-29T03:31:51;67913.69;;;10.33;100.00
24746;BME280;12845;52.042;6.838;2022-12-29T03:34:20;67919.19;;;10.36;100.00
24746;BME280;12845;52.042;6.838;2022-12-29T03:37:01;67920.31;;;10.37;100.00
24746;BME280;12845;52.042;6.838;2022-12-29T03:41:58;67926.00;;;10.42;100.00
24746;BME280;12845;52.042;6.838;2022-12-29T03:44:39;67927.13;;;10.43;100.00
24746;BME280;12845;52.042;6.838;2022-12-29T03:47:05;67926.00;;;10.42;100.00
24746;BME280;12845;52.042;6.838;2022-12-29T03:49:31;67925.44;;;10.42;100.00
24746;BME280;12845;52.042;6.838;2022-12-29T03:51:56;67927.69;;;10.44;100.00
24746;BME280;12845;52.042;6.838;2022-12-29T03:56:47;67927.69;;;10.44;100.00
24746;BME280;12845;52.042;6.838;2022-12-29T03:59:12;67927.69;;;10.44;100.00
24746;BME280;12845;52.042;6.838;2022-12-29T04:01:37;67928.84;;;10.45;100.00
24746;BME280;12845;52.042;6.838;2022-12-29T04:04:03;67926.16;;;10.45;100.00
24746;BME280;12845;52.042;6.838;2022-12-29T04:06:29;67922.94;;;10.44;100.00
24746;BME280;12845;52.042;6.838;2022-12-29T04:08:54;67928.25;;;10.44;100.00
24746;BME280;12845;52.042;6.838;2022-12-29T04:11:20;67928.84;;;10.45;100.00
24746;BME280;12845;52.042;6.838;2022-12-29T04:13:46;67926.72;;;10.45;100.00
24746;BME280;12845;52.042;6.838;2022-12-29T04:16:11;67928.25;;;10.44;100.00
24746;BME280;12845;52.042;6.838;2022-12-29T04:18:37;67927.13;;;10.43;100.00
24746;BME280;12845;52.042;6.838;2022-12-29T04:21:02;67923.72;;;10.40;100.00
24746;BME280;12845;52.042;6.838;2022-12-29T04:23:30;67919.34;;;10.38;100.00
24746;BME280;12845;52.042;6.838;2022-12-29T04:25:56;67922.78;;;10.42;100.00
24746;BME280;12845;52.042;6.838;2022-12-29T04:28:22;67923.72;;;10.40;100.00
24746;BME280;12845;52.042;6.838;2022-12-29T04:30:47;67911.59;;;10.34;100.00
24746;BME280;12845;52.042;6.838;2022-12-29T04:33:13;67903.47;;;10.24;100.00
24746;BME280;12845;52.042;6.838;2022-12-29T04:35:38;67889.66;;;10.09;100.00
24746;BME280;12845;52.042;6.838;2022-12-29T04:38:04;67882.47;;;10.05;100.00
24746;BME280;12845;52.042;6.838;2022-12-29T04:40:29;67875.09;;;9.99;100.00
24746;BME280;12845;52.042;6.838;2022-12-29T04:42:55;67875.50;;;9.97;100.00
24746;BME280;12845;52.042;6.838;2022-12-29T04:45:23;67872.66;;;9.94;100.00
24746;BME280;12845;52.042;6.838;2022-12-29T04:47:48;67865.47;;;9.90;100.00
24746;BME280;12845;52.042;6.838;2022-12-29T04:50:14;67858.25;;;9.86;100.00
24746;BME280;12845;52.042;6.838;2022-12-29T04:52:39;67860.16;;;9.83;100.00
24746;BME280;12845;52.042;6.838;2022-12-29T04:55:05;67852.03;;;9.80;100.00
24746;BME280;12845;52.042;6.838;2022-12-29T04:59:56;67849.97;;;9.74;100.00
24746;BME280;12845;52.042;6.838;2022-12-29T05:04:47;67840.34;;;9.65;100.00
24746;BME280;12845;52.042;6.838;2022-12-29T05:07:12;67833.31;;;9.63;100.00
24746;BME280;12845;52.042;6.838;2022-12-29T05:09:38;67834.09;;;9.59;100.00
24746;BME280;12845;52.042;6.838;2022-12-29T05:12:03;67830.69;;;9.56;100.00
24746;BME280;12845;52.042;6.838;2022-12-29T05:14:29;67826.72;;;9.53;100.00
24746;BME280;12845;52.042;6.838;2022-12-29T05:16:54;67818.97;;;9.48;100.00
24746;BME280;12845;52.042;6.838;2022-12-29T05:19:22;67814.25;;;9.41;100.00
24746;BME280;12845;52.042;6.838;2022-12-29T05:21:48;67808.59;;;9.36;100.00
24746;BME280;12845;52.042;6.838;2022-12-29T05:24:13;67804.63;;;9.33;100.00
24746;BME280;12845;52.042;6.838;2022-12-29T05:26:39;67795.91;;;9.30;100.00
24746;BME280;12845;52.042;6.838;2022-12-29T05:29:04;67796.69;;;9.25;100.00
24746;BME280;12845;52.042;6.838;2022-12-29T05:31:29;67792.16;;;9.21;100.00
24746;BME280;12845;52.042;6.838;2022-12-29T05:36:20;67791.59;;;9.21;100.00
24746;BME280;12845;52.042;6.838;2022-12-29T05:38:45;67784.97;;;9.17;100.00
24746;BME280;12845;52.042;6.838;2022-12-29T05:41:11;67787.59;;;9.17;100.00
24746;BME280;12845;52.042;6.838;2022-12-29T05:43:36;67788.75;;;9.18;100.00
24746;BME280;12845;52.042;6.838;2022-12-29T05:46:03;67786.47;;;9.16;100.00
24746;BME280;12845;52.042;6.838;2022-12-29T05:48:28;67781.75;;;9.17;100.00
24746;BME280;12845;52.042;6.838;2022-12-29T05:50:54;67781.19;;;9.16;100.00
24746;BME280;12845;52.042;6.838;2022-12-29T05:53:20;67784.22;;;9.14;100.00
24746;BME280;12845;52.042;6.838;2022-12-29T05:55:48;67778.16;;;9.11;100.00
24746;BME280;12845;52.042;6.838;2022-12-29T05:58:15;67773.25;;;9.09;100.00
24746;BME280;12845;52.042;6.838;2022-12-29T06:00:40;67778.56;;;9.09;100.00
24746;BME280;12845;52.042;6.838;2022-12-29T06:03:05;67780.44;;;9.13;100.00
24746;BME280;12845;52.042;6.838;2022-12-29T06:05:31;67784.22;;;9.14;100.00
24746;BME280;12845;52.042;6.838;2022-12-29T06:07:56;67788.19;;;9.18;100.00
24746;BME280;12845;52.042;6.838;2022-12-29T06:10:22;67790.63;;;9.22;100.00
24746;BME280;12845;52.042;6.838;2022-12-29T06:12:47;67791.19;;;9.23;100.00
24746;BME280;12845;52.042;6.838;2022-12-29T06:15:13;67793.28;;;9.22;100.00
24746;BME280;12845;52.042;6.838;2022-12-29T06:17:38;67791.75;;;9.23;100.00
24746;BME280;12845;52.042;6.838;2022-12-29T06:20:04;67788.34;;;9.20;100.00
24746;BME280;12845;52.042;6.838;2022-12-29T06:24:55;67785.53;;;9.18;100.00
24746;BME280;12845;52.042;6.838;2022-12-29T06:27:21;67789.31;;;9.19;100.00
24746;BME280;12845;52.042;6.838;2022-12-29T06:29:46;67783.09;;;9.13;100.00
24746;BME280;12845;52.042;6.838;2022-12-29T06:32:11;67778.16;;;9.11;100.00
24746;BME280;12845;52.042;6.838;2022-12-29T06:37:02;67772.88;;;9.04;100.00
24746;BME280;12845;52.042;6.838;2022-12-29T06:39:28;67767.78;;;8.99;100.00
24746;BME280;12845;52.042;6.838;2022-12-29T06:41:54;67766.25;;;9.00;100.00
24746;BME280;12845;52.042;6.838;2022-12-29T06:44:20;67762.13;;;8.94;100.00
24746;BME280;12845;52.042;6.838;2022-12-29T06:46:46;67769.13;;;8.96;100.00
24746;BME280;12845;52.042;6.838;2022-12-29T06:49:11;67758.72;;;8.91;100.00
24746;BME280;12845;52.042;6.838;2022-12-29T06:51:37;67760.41;;;8.93;100.00
24746;BME280;12845;52.042;6.838;2022-12-29T06:54:02;67758.72;;;8.91;100.00
24746;BME280;12845;52.042;6.838;2022-12-29T06:56:27;67759.28;;;8.92;100.00
24746;BME280;12845;52.042;6.838;2022-12-29T06:58:53;67758.16;;;8.91;100.00
24746;BME280;12845;52.042;6.838;2022-12-29T07:01:18;67758.16;;;8.91;100.00
24746;BME280;12845;52.042;6.838;2022-12-29T07:03:44;67756.47;;;8.89;100.00
24746;BME280;12845;52.042;6.838;2022-12-29T07:06:09;67756.63;;;8.92;100.00
24746;BME280;12845;52.042;6.838;2022-12-29T07:08:35;67759.28;;;8.92;100.00
24746;BME280;12845;52.042;6.838;2022-12-29T07:11:00;67757.03;;;8.90;100.00
24746;BME280;12845;52.042;6.838;2022-12-29T07:13:25;67757.03;;;8.90;100.00
24746;BME280;12845;52.042;6.838;2022-12-29T07:15:51;67753.81;;;8.89;100.00
24746;BME280;12845;52.042;6.838;2022-12-29T07:18:16;67758.16;;;8.91;100.00
24746;BME280;12845;52.042;6.838;2022-12-29T07:23:07;67763.44;;;8.98;100.00
24746;BME280;12845;52.042;6.838;2022-12-29T07:25:32;67769.50;;;9.01;100.00
24746;BME280;12845;52.042;6.838;2022-12-29T07:27:57;67775.13;;;9.06;100.00
24746;BME280;12845;52.042;6.838;2022-12-29T07:30:23;67775.72;;;9.07;100.00
24746;BME280;12845;52.042;6.838;2022-12-29T07:35:14;67782.31;;;9.17;100.00
24746;BME280;12845;52.042;6.838;2022-12-29T07:37:39;67787.41;;;9.22;100.00
24746;BME280;12845;52.042;6.838;2022-12-29T07:40:05;67798.94;;;9.27;100.00
24746;BME280;12845;52.042;6.838;2022-12-29T07:42:31;67795.56;;;9.24;100.00
24746;BME280;12845;52.042;6.838;2022-12-29T07:44:56;67797.81;;;9.26;100.00
24746;BME280;12845;52.042;6.838;2022-12-29T07:47:22;67797.25;;;9.26;100.00
24746;BME280;12845;52.042;6.838;2022-12-29T07:49:47;67795.56;;;9.24;100.00
24746;BME280;12845;52.042;6.838;2022-12-29T07:54:38;67795.56;;;9.24;100.00
24746;BME280;12845;52.042;6.838;2022-12-29T07:57:04;67794.41;;;9.23;100.00
24746;BME280;12845;52.042;6.838;2022-12-29T07:59:29;67797.81;;;9.26;100.00
24746;BME280;12845;52.042;6.838;2022-12-29T08:06:45;67802.72;;;9.36;100.00
24746;BME280;12845;52.042;6.838;2022-12-29T08:09:13;67808.03;;;9.36;100.00
24746;BME280;12845;52.042;6.838;2022-12-29T08:14:05;67805.94;;;9.36;100.00
24746;BME280;12845;52.042;6.838;2022-12-29T08:16:31;67809.16;;;9.37;100.00
24746;BME280;12845;52.042;6.838;2022-12-29T08:18:56;67809.72;;;9.37;100.00
24746;BME280;12845;52.042;6.838;2022-12-29T08:23:47;67809.50;;;9.42;100.00
24746;BME280;12845;52.042;6.838;2022-12-29T08:26:12;67815.94;;;9.43;100.00
24746;BME280;12845;52.042;6.838;2022-12-29T08:28:38;67813.28;;;9.43;100.00
24746;BME280;12845;52.042;6.838;2022-12-29T08:31:03;67825.81;;;9.47;100.00
24746;BME280;12845;52.042;6.838;2022-12-29T08:36:02;67822.75;;;9.49;100.00
24746;BME280;12845;52.042;6.838;2022-12-29T08:38:28;67821.25;;;9.50;100.00
24746;BME280;12845;52.042;6.838;2022-12-29T08:40:54;67820.28;;;9.52;100.00
24746;BME280;12845;52.042;6.838;2022-12-29T08:48:10;67837.13;;;9.64;100.00
24746;BME280;12845;52.042;6.838;2022-12-29T08:50:35;67847.34;;;9.66;100.00
24746;BME280;12845;52.042;6.838;2022-12-29T08:53:01;67840.91;;;9.65;99.94
24746;BME280;12845;52.042;6.838;2022-12-29T08:57:51;67836.72;;;9.66;98.77
24746;BME280;12845;52.042;6.838;2022-12-29T09:00:17;67840.50;;;9.67;98.57
24746;BME280;12845;52.042;6.838;2022-12-29T09:05:08;67842.75;;;9.69;98.03
24746;BME280;12845;52.042;6.838;2022-12-29T09:07:35;67844.28;;;9.68;97.20
24746;BME280;12845;52.042;6.838;2022-12-29T09:10:00;67846.00;;;9.70;97.33
24746;BME280;12845;52.042;6.838;2022-12-29T09:12:26;67840.50;;;9.67;97.83
24746;BME280;12845;52.042;6.838;2022-12-29T09:20:00;67837.69;;;9.65;96.89
24746;BME280;12845;52.042;6.838;2022-12-29T09:22:26;67842.03;;;9.66;96.68
24746;BME280;12845;52.042;6.838;2022-12-29T09:24:51;67838.41;;;9.68;97.02
24746;BME280;12845;52.042;6.838;2022-12-29T09:27:17;67844.84;;;9.69;96.88
24746;BME280;12845;52.042;6.838;2022-12-29T09:29:42;67851.88;;;9.70;96.97
24746;BME280;12845;52.042;6.838;2022-12-29T09:32:07;67849.41;;;9.73;95.94
24746;BME280;12845;52.042;6.838;2022-12-29T09:34:33;67853.94;;;9.77;96.73
24746;BME280;12845;52.042;6.838;2022-12-29T09:39:23;67859.78;;;9.85;94.91
24746;BME280;12845;52.042;6.838;2022-12-29T09:42:06;67875.69;;;9.92;94.08
24746;BME280;12845;52.042;6.838;2022-12-29T09:44:55;67872.66;;;9.94;93.63
24746;BME280;12845;52.042;6.838;2022-12-29T09:47:23;67875.50;;;9.97;91.89
24746;BME280;12845;52.042;6.838;2022-12-29T09:49:54;67866.59;;;9.91;92.62
24746;BME280;12845;52.042;6.838;2022-12-29T09:52:21;67873.41;;;9.97;92.12
24746;BME280;12845;52.042;6.838;2022-12-29T09:54:55;67879.44;;;10.00;91.85
24746;BME280;12845;52.042;6.838;2022-12-29T09:57:25;67888.72;;;10.04;91.11
24746;BME280;12845;52.042;6.838;2022-12-29T09:59:55;67884.00;;;10.04;91.83
24746;BME280;12845;52.042;6.838;2022-12-29T10:04:57;67863.00;;;9.85;96.75
24746;BME280;12845;52.042;6.838;2022-12-29T10:10:16;67848.25;;;9.72;95.86
24746;BME280;12845;52.042;6.838;2022-12-29T10:13:13;67853.38;;;9.77;96.62
24746;BME280;12845;52.042;6.838;2022-12-29T10:18:26;67863.56;;;9.86;95.51
24746;BME280;12845;52.042;6.838;2022-12-29T10:20:58;67864.88;;;9.89;94.80
24746;BME280;12845;52.042;6.838;2022-12-29T10:23:39;67874.38;;;9.96;94.01
24746;BME280;12845;52.042;6.838;2022-12-29T10:28:47;67884.75;;;10.07;94.86
24746;BME280;12845;52.042;6.838;2022-12-29T10:31:32;67885.88;;;10.08;94.14
24746;BME280;12845;52.042;6.838;2022-12-29T10:36:39;67886.25;;;10.06;96.49
24746;BME280;12845;52.042;6.838;2022-12-29T10:41:56;67877.75;;;9.99;97.12
24746;BME280;12845;52.042;6.838;2022-12-29T10:44:27;67874.94;;;9.96;97.67
24746;BME280;12845;52.042;6.838;2022-12-29T10:46:58;67880.25;;;9.96;97.84
24746;BME280;12845;52.042;6.838;2022-12-29T10:49:26;67873.78;;;9.95;98.07
24746;BME280;12845;52.042;6.838;2022-12-29T10:54:33;67869.25;;;9.91;98.56
24746;BME280;12845;52.042;6.838;2022-12-29T10:57:18;67859.97;;;9.87;99.62
24746;BME280;12845;52.042;6.838;2022-12-29T10:59:45;67866.63;;;9.84;100.00
24746;BME280;12845;52.042;6.838;2022-12-29T11:05:12;67848.63;;;9.77;100.00
24746;BME280;12845;52.042;6.838;2022-12-29T11:07:40;67846.75;;;9.73;100.00
24746;BME280;12845;52.042;6.838;2022-12-29T11:15:49;67840.91;;;9.65;100.00
24746;BME280;12845;52.042;6.838;2022-12-29T11:18:21;67829.16;;;9.57;100.00
24746;BME280;12845;52.042;6.838;2022-12-29T11:20:47;67827.47;;;9.56;100.00
24746;BME280;12845;52.042;6.838;2022-12-29T11:23:30;67827.31;;;9.53;100.00
24746;BME280;12845;52.042;6.838;2022-12-29T11:26:16;67821.63;;;9.48;100.00
24746;BME280;12845;52.042;6.838;2022-12-29T11:28:47;67815.94;;;9.43;100.00
24746;BME280;12845;52.042;6.838;2022-12-29T11:31:17;67813.13;;;9.40;100.00
24746;BME280;12845;52.042;6.838;2022-12-29T11:33:43;67806.31;;;9.34;100.00
24746;BME280;12845;52.042;6.838;2022-12-29T11:36:18;67792.91;;;9.24;100.00
24746;BME280;12845;52.042;6.838;2022-12-29T11:38:50;67787.59;;;9.17;100.00
24746;BME280;12845;52.042;6.838;2022-12-29T11:41:23;67781.56;;;9.14;100.00
24746;BME280;12845;52.042;6.838;2022-12-29T11:43:49;67785.34;;;9.15;100.00
24746;BME280;12845;52.042;6.838;2022-12-29T11:48:42;67783.66;;;9.14;100.00
24746;BME280;12845;52.042;6.838;2022-12-29T11:51:08;67784.78;;;9.15;100.00
24746;BME280;12845;52.042;6.838;2022-12-29T11:53:45;67789.88;;;9.19;100.00
24746;BME280;12845;52.042;6.838;2022-12-29T11:56:31;67791.75;;;9.23;100.00
24746;BME280;12845;52.042;6.838;2022-12-29T12:01:30;67801.22;;;9.30;100.00
24746;BME280;12845;52.042;6.838;2022-12-29T12:08:59;67807.63;;;9.38;100.00
24746;BME280;12845;52.042;6.838;2022-12-29T12:11:44;67813.69;;;9.41;100.00
24746;BME280;12845;52.042;6.838;2022-12-29T12:17:04;67822.75;;;9.49;100.00
24746;BME280;12845;52.042;6.838;2022-12-29T12:22:27;67834.31;;;9.55;100.00
24746;BME280;12845;52.042;6.838;2022-12-29T12:25:09;67827.31;;;9.53;100.00
24746;BME280;12845;52.042;6.838;2022-12-29T12:30:33;67829.91;;;9.60;100.00
24746;BME280;12845;52.042;6.838;2022-12-29T12:33:16;67834.09;;;9.59;100.00
24746;BME280;12845;52.042;6.838;2022-12-29T12:57:35;67838.28;;;9.58;100.00
24746;BME280;12845;52.042;6.838;2022-12-29T13:07:59;67833.13;;;9.61;100.00
24746;BME280;12845;52.042;6.838;2022-12-29T13:10:54;67838.63;;;9.63;100.00
24746;BME280;12845;52.042;6.838;2022-12-29T13:24:10;67848.25;;;9.72;100.00
24746;BME280;12845;52.042;6.838;2022-12-29T13:26:49;67847.13;;;9.71;100.00
24746;BME280;12845;52.042;6.838;2022-12-29T13:29:36;67840.50;;;9.67;100.00
24746;BME280;12845;52.042;6.838;2022-12-29T13:32:25;67837.84;;;9.67;100.00
24746;BME280;12845;52.042;6.838;2022-12-29T13:35:54;67842.59;;;9.67;100.00
24746;BME280;12845;52.042;6.838;2022-12-29T13:38:18;67838.81;;;9.66;100.00
24746;BME280;12845;52.042;6.838;2022-12-29T13:40:49;67843.72;;;9.68;100.00
24746;BME280;12845;52.042;6.838;2022-12-29T13:43:18;67840.50;;;9.67;100.00
24746;BME280;12845;52.042;6.838;2022-12-29T13:45:45;67842.59;;;9.67;100.00
24746;BME280;12845;52.042;6.838;2022-12-29T13:48:24;67835.97;;;9.63;100.00
24746;BME280;12845;52.042;6.838;2022-12-29T13:55:56;67832.75;;;9.63;100.00
24746;BME280;12845;52.042;6.838;2022-12-29T14:03:55;67840.50;;;9.67;100.00
24746;BME280;12845;52.042;6.838;2022-12-29T14:08:51;67836.56;;;9.64;99.90
24746;BME280;12845;52.042;6.838;2022-12-29T14:13:46;67837.69;;;9.65;99.93
24746;BME280;12845;52.042;6.838;2022-12-29T14:16:33;67836.56;;;9.64;100.00
24746;BME280;12845;52.042;6.838;2022-12-29T14:19:29;67838.06;;;9.63;99.79
24746;BME280;12845;52.042;6.838;2022-12-29T14:21:58;67841.69;;;9.61;98.92
24746;BME280;12845;52.042;6.838;2022-12-29T14:24:35;67835.22;;;9.60;98.49
24746;BME280;12845;52.042;6.838;2022-12-29T14:37:29;67834.09;;;9.59;97.63
24746;BME280;12845;52.042;6.838;2022-12-29T14:42:43;67831.81;;;9.57;96.56
24746;BME280;12845;52.042;6.838;2022-12-29T14:47:41;67831.25;;;9.57;96.76
24746;BME280;12845;52.042;6.838;2022-12-29T14:52:52;67826.16;;;9.52;99.65
24746;BME280;12845;52.042;6.838;2022-12-29T14:55:40;67817.09;;;9.44;100.00
24746;BME280;12845;52.042;6.838;2022-12-29T14:58:28;67802.53;;;9.33;100.00
24746;BME280;12845;52.042;6.838;2022-12-29T15:00:55;67795.16;;;9.26;100.00
24746;BME280;12845;52.042;6.838;2022-12-29T15:03:46;67785.91;;;9.16;100.00
24746;BME280;12845;52.042;6.838;2022-12-29T15:06:15;67772.50;;;9.06;100.00
24746;BME280;12845;52.042;6.838;2022-12-29T15:11:17;67759.84;;;8.92;100.00
24746;BME280;12845;52.042;6.838;2022-12-29T15:13:44;67755.88;;;8.89;100.00
24746;BME280;12845;52.042;6.838;2022-12-29T15:16:26;67747.56;;;8.84;100.00
24746;BME280;12845;52.042;6.838;2022-12-29T15:18:54;67753.25;;;8.81;100.00
24746;BME280;12845;52.042;6.838;2022-12-29T15:21:30;67746.25;;;8.80;100.00
24746;BME280;12845;52.042;6.838;2022-12-29T15:23:56;67742.28;;;8.76;100.00
24746;BME280;12845;52.042;6.838;2022-12-29T15:31:20;67729.25;;;8.65;100.00
24746;BME280;12845;52.042;6.838;2022-12-29T15:33:47;67729.47;;;8.60;100.00
24746;BME280;12845;52.042;6.838;2022-12-29T15:36:19;67709.81;;;8.52;100.00
24746;BME280;12845;52.042;6.838;2022-12-29T15:38:45;67713.97;;;8.51;100.00
24746;BME280;12845;52.042;6.838;2022-12-29T15:41:39;67719.84;;;8.51;100.00
24746;BME280;12845;52.042;6.838;2022-12-29T15:46:57;67706.41;;;8.49;100.00
24746;BME280;12845;52.042;6.838;2022-12-29T15:49:26;67709.06;;;8.49;100.00
24746;BME280;12845;52.042;6.838;2022-12-29T15:51:52;67715.88;;;8.48;100.00
24746;BME280;12845;52.042;6.838;2022-12-29T15:54:19;67717.00;;;8.49;100.00
24746;BME280;12845;52.042;6.838;2022-12-29T15:56:46;67710.75;;;8.50;100.00
24746;BME280;12845;52.042;6.838;2022-12-29T15:59:30;67713.97;;;8.51;100.00
24746;BME280;12845;52.042;6.838;2022-12-29T16:01:57;67711.72;;;8.49;100.00
24746;BME280;12845;52.042;6.838;2022-12-29T16:04:30;67718.13;;;8.50;100.00
24746;BME280;12845;52.042;6.838;2022-12-29T16:09:40;67710.19;;;8.50;100.00
24746;BME280;12845;52.042;6.838;2022-12-29T16:12:17;67712.84;;;8.50;100.00
24746;BME280;12845;52.042;6.838;2022-12-29T16:14:51;67711.72;;;8.49;100.00
24746;BME280;12845;52.042;6.838;2022-12-29T16:17:21;67717.56;;;8.49;100.00
24746;BME280;12845;52.042;6.838;2022-12-29T16:22:41;67709.44;;;8.47;100.00
24746;BME280;12845;52.042;6.838;2022-12-29T16:35:26;67707.16;;;8.45;100.00
24746;BME280;12845;52.042;6.838;2022-12-29T16:40:37;67707.72;;;8.45;100.00
24746;BME280;12845;52.042;6.838;2022-12-29T16:43:03;67705.06;;;8.45;100.00
24746;BME280;12845;52.042;6.838;2022-12-29T16:50:40;67703.22;;;8.41;100.00
24746;BME280;12845;52.042;6.838;2022-12-29T16:55:46;67697.91;;;8.41;100.00
24746;BME280;12845;52.042;6.838;2022-12-29T16:58:17;67696.56;;;8.38;100.00
24746;BME280;12845;52.042;6.838;2022-12-29T17:00:45;67699.22;;;8.38;100.00
24746;BME280;12845;52.042;6.838;2022-12-29T17:05:37;67705.47;;;8.43;100.00
24746;BME280;12845;52.042;6.838;2022-12-29T17:08:02;67704.91;;;8.43;100.00
24746;BME280;12845;52.042;6.838;2022-12-29T17:10:28;67700.56;;;8.41;100.00
24746;BME280;12845;52.042;6.838;2022-12-29T17:13:12;67697.72;;;8.39;100.00
24746;BME280;12845;52.042;6.838;2022-12-29T17:15:38;67699.22;;;8.38;100.00
24746;BME280;12845;52.042;6.838;2022-12-29T17:18:03;67696.97;;;8.35;100.00
24746;BME280;12845;52.042;6.838;2022-12-29T17:20:30;67694.69;;;8.33;100.00
24746;BME280;12845;52.042;6.838;2022-12-29T17:28:17;67694.13;;;8.33;100.00
24746;BME280;12845;52.042;6.838;2022-12-29T17:30:45;67685.25;;;8.27;100.00
24746;BME280;12845;52.042;6.838;2022-12-29T17:33:14;67690.38;;;8.25;100.00
24746;BME280;12845;52.042;6.838;2022-12-29T17:35:40;67681.84;;;8.24;100.00
24746;BME280;12845;52.042;6.838;2022-12-29T17:38:20;67672.03;;;8.13;100.00
24746;BME280;12845;52.042;6.838;2022-12-29T17:43:13;67667.50;;;8.09;100.00
24746;BME280;12845;52.042;6.838;2022-12-29T17:45:59;67664.69;;;8.06;100.00
24746;BME280;12845;52.042;6.838;2022-12-29T17:48:30;67665.25;;;8.07;100.00
24746;BME280;12845;52.042;6.838;2022-12-29T17:50:56;67661.84;;;8.04;100.00